Chemstar Masa — 3FGM7 — position and weather

sailwx.info

Track history (hours):
 
Tides and Currents Weather Stations Pressure Air Temp Water Temp Dewpoint Dewpoint Depression Visibility Wind Speed Wind Dir Waves Ship Positions

Chemstar Masa

Last reported at 2017-May-09 06:28 UTC. Time now 2017-Jun-27 14:10 UTC.
Position N 31°25' E 121°30'.
Warning: this ship's position is 49 days out of date.

Length 148 m; draft 10 m.

Type: Ship (hazmat cat B). MMSI: 353456000.

Date/timePositionNaut miles runAvg speedWind from/ knotsBaromVisibWave heightAir tempDewpointWater temp
2017-May-09 06:28N 31°25' E 121°30'4 8.5
2017-May-09 06:00N 31°28' E 121°27'5 9.6
2017-May-09 05:30N 31°31' E 121°22'612.5
2017-May-09 05:01N 31°36' E 121°17'612.4
2017-May-09 04:30N 31°40' E 121°12'611.8
2017-May-09 03:59N 31°44' E 121°06'3411.5
2017-May-09 01:01N 32°01' E 120°32'113.4
2017-May-09 00:59N 32°02' E 120°31'4 6.2
2017-May-09 00:22N 32°00' E 120°27'0 0.0
2017-May-07 03:31N 32°00' E 120°27'0 2.1
2017-May-07 03:28N 32°00' E 120°27'4 6.8
2017-May-07 02:50N 32°01' E 120°32'2010.3
2017-May-07 00:55N 31°53' E 120°53'810.9
2017-May-07 00:12N 31°47' E 120°58'210.0
2017-May-07 00:00N 31°47' E 121°00'510.1
2017-May-06 23:31N 31°45' E 121°06'612.3
2017-May-06 23:00N 31°41' E 121°11'510.7
2017-May-06 22:30N 31°37' E 121°16'5 9.5
2017-May-06 22:00N 31°34' E 121°20'0 0.0
2017-May-06 21:28N 31°34' E 121°20'0 0.0
2017-May-06 20:55N 31°34' E 121°20'0 0.0
2017-May-06 20:25N 31°34' E 121°20'0 0.0
2017-May-06 19:55N 31°34' E 121°20'0 0.0
2017-May-06 19:28N 31°34' E 121°20'0 0.0
2017-May-06 18:52N 31°34' E 121°20'0 0.0
2017-May-06 18:25N 31°34' E 121°20'0 0.0
2017-May-06 17:55N 31°34' E 121°20'0 0.0
2017-May-06 17:25N 31°34' E 121°20'0 0.2
2017-May-06 16:58N 31°34' E 121°20'0 0.1
2017-May-06 16:25N 31°34' E 121°20'0 0.0
2017-May-06 15:55N 31°34' E 121°20'0 0.1
2017-May-06 15:25N 31°34' E 121°20'0 0.0
2017-May-06 14:58N 31°34' E 121°20'1 0.8
2017-May-06 14:00N 31°33' E 121°20'510.9
2017-May-06 13:30N 31°30' E 121°25'611.1
2017-May-06 13:00N 31°26' E 121°30'5 8.6
2017-May-06 12:28N 31°24' E 121°35'4 8.6
2017-May-06 11:59N 31°22' E 121°39'  
2017-Apr-30 01:52N 01°14' E 104°01'515.2
2017-Apr-30 01:30N 01°13' E 103°56'815.9
2017-Apr-30 01:00N 01°10' E 103°49'816.5
2017-Apr-30 00:30N 01°05' E 103°42'713.5
2017-Apr-30 00:00N 01°05' E 103°36'510.7
2017-Apr-29 23:30N 01°10' E 103°34'5 9.9
2017-Apr-29 23:00N 01°12' E 103°39'2 3.8
2017-Apr-29 22:30N 01°14' E 103°39'1 2.3
2017-Apr-29 22:00N 01°14' E 103°38'0 0.0
2017-Apr-29 21:30N 01°14' E 103°38'0 0.1
2017-Apr-29 20:54N 01°14' E 103°38'0 0.1
2017-Apr-29 20:30N 01°14' E 103°38'0 0.0
2017-Apr-29 20:00N 01°14' E 103°38'0 0.0
2017-Apr-29 19:30N 01°14' E 103°38'0 0.0
2017-Apr-29 18:54N 01°14' E 103°38'0 0.0
2017-Apr-29 18:30N 01°14' E 103°38'0 0.0
2017-Apr-29 18:00N 01°14' E 103°38'0 0.0
2017-Apr-29 17:27N 01°14' E 103°38'0 0.0
2017-Apr-29 17:00N 01°14' E 103°38'0 0.1
2017-Apr-29 16:30N 01°14' E 103°38'0 0.1
2017-Apr-29 15:57N 01°14' E 103°38'0 0.0
2017-Apr-29 15:30N 01°14' E 103°38'0 0.3
2017-Apr-29 15:00N 01°14' E 103°38'0 0.0
2017-Apr-29 14:00N 01°14' E 103°38'0 0.0
2017-Apr-29 13:30N 01°14' E 103°38'0 0.0
2017-Apr-29 13:00N 01°14' E 103°38'0 0.0
2017-Apr-29 12:30N 01°14' E 103°38'0 0.0
2017-Apr-29 12:00N 01°14' E 103°38'0 0.0
2017-Apr-29 11:30N 01°14' E 103°38'0 0.0
2017-Apr-29 10:51N 01°14' E 103°38'0 0.0
2017-Apr-29 10:27N 01°14' E 103°38'0 0.0
2017-Apr-29 09:51N 01°14' E 103°38'0 0.1
2017-Apr-29 09:30N 01°14' E 103°38'0 0.1
2017-Apr-29 08:57N 01°14' E 103°38'0 0.1
2017-Apr-29 08:30N 01°14' E 103°38'0 0.0
2017-Apr-29 07:51N 01°14' E 103°38'0 0.1
2017-Apr-29 07:30N 01°14' E 103°38'0 0.0
2017-Apr-29 06:54N 01°14' E 103°38'0 0.0
2017-Apr-29 06:30N 01°14' E 103°38'  
Track history (hours):
 
Tides and Currents Weather Stations Pressure Air Temp Water Temp Dewpoint Dewpoint Depression Visibility Wind Speed Wind Dir Waves Ship Positions

Chemstar Masa

Last reported at 2017-May-09 06:28 UTC. Time now 2017-Jun-27 14:10 UTC.
Position N 31°25' E 121°30'.
Warning: this ship's position is 49 days out of date.

Length 148 m; draft 10 m.

Type: Ship (hazmat cat B). MMSI: 353456000.

Date/timePositionNaut miles runAvg speedWind from/ knotsBaromVisibWave heightAir tempDewpointWater temp
2017-May-09 06:28N 31°25' E 121°30'4 8.5
2017-May-09 06:00N 31°28' E 121°27'5 9.6
2017-May-09 05:30N 31°31' E 121°22'612.5
2017-May-09 05:01N 31°36' E 121°17'612.4
2017-May-09 04:30N 31°40' E 121°12'611.8
2017-May-09 03:59N 31°44' E 121°06'3411.5
2017-May-09 01:01N 32°01' E 120°32'113.4
2017-May-09 00:59N 32°02' E 120°31'4 6.2
2017-May-09 00:22N 32°00' E 120°27'0 0.0
2017-May-07 03:31N 32°00' E 120°27'0 2.1
2017-May-07 03:28N 32°00' E 120°27'4 6.8
2017-May-07 02:50N 32°01' E 120°32'2010.3
2017-May-07 00:55N 31°53' E 120°53'810.9
2017-May-07 00:12N 31°47' E 120°58'210.0
2017-May-07 00:00N 31°47' E 121°00'510.1
2017-May-06 23:31N 31°45' E 121°06'612.3
2017-May-06 23:00N 31°41' E 121°11'510.7
2017-May-06 22:30N 31°37' E 121°16'5 9.5
2017-May-06 22:00N 31°34' E 121°20'0 0.0
2017-May-06 21:28N 31°34' E 121°20'0 0.0
2017-May-06 20:55N 31°34' E 121°20'0 0.0
2017-May-06 20:25N 31°34' E 121°20'0 0.0
2017-May-06 19:55N 31°34' E 121°20'0 0.0
2017-May-06 19:28N 31°34' E 121°20'0 0.0
2017-May-06 18:52N 31°34' E 121°20'0 0.0
2017-May-06 18:25N 31°34' E 121°20'0 0.0
2017-May-06 17:55N 31°34' E 121°20'0 0.0
2017-May-06 17:25N 31°34' E 121°20'0 0.2
2017-May-06 16:58N 31°34' E 121°20'0 0.1
2017-May-06 16:25N 31°34' E 121°20'0 0.0
2017-May-06 15:55N 31°34' E 121°20'0 0.1
2017-May-06 15:25N 31°34' E 121°20'0 0.0
2017-May-06 14:58N 31°34' E 121°20'1 0.8
2017-May-06 14:00N 31°33' E 121°20'510.9
2017-May-06 13:30N 31°30' E 121°25'611.1
2017-May-06 13:00N 31°26' E 121°30'5 8.6
2017-May-06 12:28N 31°24' E 121°35'4 8.6
2017-May-06 11:59N 31°22' E 121°39'  
2017-Apr-30 01:52N 01°14' E 104°01'515.2
2017-Apr-30 01:30N 01°13' E 103°56'815.9
2017-Apr-30 01:00N 01°10' E 103°49'816.5
2017-Apr-30 00:30N 01°05' E 103°42'713.5
2017-Apr-30 00:00N 01°05' E 103°36'510.7
2017-Apr-29 23:30N 01°10' E 103°34'5 9.9
2017-Apr-29 23:00N 01°12' E 103°39'2 3.8
2017-Apr-29 22:30N 01°14' E 103°39'1 2.3
2017-Apr-29 22:00N 01°14' E 103°38'0 0.0
2017-Apr-29 21:30N 01°14' E 103°38'0 0.1
2017-Apr-29 20:54N 01°14' E 103°38'0 0.1
2017-Apr-29 20:30N 01°14' E 103°38'0 0.0
2017-Apr-29 20:00N 01°14' E 103°38'0 0.0
2017-Apr-29 19:30N 01°14' E 103°38'0 0.0
2017-Apr-29 18:54N 01°14' E 103°38'0 0.0
2017-Apr-29 18:30N 01°14' E 103°38'0 0.0
2017-Apr-29 18:00N 01°14' E 103°38'0 0.0
2017-Apr-29 17:27N 01°14' E 103°38'0 0.0
2017-Apr-29 17:00N 01°14' E 103°38'0 0.1
2017-Apr-29 16:30N 01°14' E 103°38'0 0.1
2017-Apr-29 15:57N 01°14' E 103°38'0 0.0
2017-Apr-29 15:30N 01°14' E 103°38'0 0.3
2017-Apr-29 15:00N 01°14' E 103°38'0 0.0
2017-Apr-29 14:00N 01°14' E 103°38'0 0.0
2017-Apr-29 13:30N 01°14' E 103°38'0 0.0
2017-Apr-29 13:00N 01°14' E 103°38'0 0.0
2017-Apr-29 12:30N 01°14' E 103°38'0 0.0
2017-Apr-29 12:00N 01°14' E 103°38'0 0.0
2017-Apr-29 11:30N 01°14' E 103°38'0 0.0
2017-Apr-29 10:51N 01°14' E 103°38'0 0.0
2017-Apr-29 10:27N 01°14' E 103°38'0 0.0
2017-Apr-29 09:51N 01°14' E 103°38'0 0.1
2017-Apr-29 09:30N 01°14' E 103°38'0 0.1
2017-Apr-29 08:57N 01°14' E 103°38'0 0.1
2017-Apr-29 08:30N 01°14' E 103°38'0 0.0
2017-Apr-29 07:51N 01°14' E 103°38'0 0.1
2017-Apr-29 07:30N 01°14' E 103°38'0 0.0
2017-Apr-29 06:54N 01°14' E 103°38'0 0.0
2017-Apr-29 06:30N 01°14' E 103°38'  

Dump ship's entire track history